createdAt,value
2023-04-22T00:00:15.678Z,100062.38
2023-04-22T00:10:39.446Z,100056.40
2023-04-22T00:20:44.478Z,100050.44
2023-04-22T00:30:48.202Z,100043.00
2023-04-22T00:40:52.064Z,100038.01
2023-04-22T00:50:56.034Z,100035.05
2023-04-22T01:01:00.126Z,100030.84
2023-04-22T01:11:03.974Z,100026.70
2023-04-22T01:21:07.944Z,100022.33
2023-04-22T01:31:12.625Z,100018.95
2023-04-22T01:41:16.910Z,100024.18
2023-04-22T01:51:21.329Z,100021.01
2023-04-22T02:01:25.284Z,100018.80
2023-04-22T02:11:29.223Z,100015.05
2023-04-22T02:21:33.710Z,100014.80
2023-04-22T02:31:37.804Z,100004.95
2023-04-22T02:41:41.440Z,99997.09
2023-04-22T02:51:45.624Z,99992.55
2023-04-22T03:01:49.910Z,99998.16
2023-04-22T03:12:04.632Z,99998.45
2023-04-22T03:22:08.743Z,100003.73
2023-04-22T03:32:13.143Z,100006.60
2023-04-22T03:42:17.647Z,100002.16
2023-04-22T03:52:21.920Z,100002.91
2023-04-22T04:02:32.419Z,100015.94
2023-04-22T04:12:37.642Z,100016.28
2023-04-22T04:22:43.759Z,100014.83
2023-04-22T04:32:48.399Z,99998.92
2023-04-22T04:42:55.889Z,99995.99
2023-04-22T04:53:02.848Z,99992.72
2023-04-22T05:03:17.445Z,99995.77
2023-04-22T05:13:22.842Z,99993.28
2023-04-22T05:23:27.048Z,99999.48
2023-04-22T05:33:32.844Z,100005.52
2023-04-22T05:43:37.117Z,100003.42
2023-04-22T05:53:46.299Z,100003.86
2023-04-22T06:03:50.982Z,100003.57
2023-04-22T06:13:55.278Z,100001.42
2023-04-22T06:24:01.705Z,99997.99
2023-04-22T06:34:06.375Z,99995.96
2023-04-22T06:44:10.763Z,99989.73
2023-04-22T06:54:27.526Z,99982.99
2023-04-22T07:04:32.169Z,99978.23
2023-04-22T07:14:37.714Z,99986.31
2023-04-22T07:24:41.445Z,99986.38
2023-04-22T07:34:45.434Z,99982.45
2023-04-22T07:44:49.325Z,99975.79
2023-04-22T07:54:53.177Z,99968.41
2023-04-22T08:04:56.969Z,99969.23
2023-04-22T08:15:00.832Z,99964.17
2023-04-22T08:25:05.090Z,99958.27
2023-04-22T08:35:09.522Z,99958.79
2023-04-22T08:45:13.863Z,99956.51
2023-04-22T08:55:17.614Z,99960.42
2023-04-22T09:05:25.171Z,99961.08
2023-04-22T09:15:30.671Z,99956.47
2023-04-22T09:25:36.118Z,99947.25
2023-04-22T09:35:42.048Z,99939.33
2023-04-22T09:45:45.766Z,99924.85
2023-04-22T09:55:55.165Z,99916.65
2023-04-22T10:05:59.319Z,99910.66
2023-04-22T10:16:03.602Z,99904.16
2023-04-22T10:26:07.360Z,99897.71
2023-04-22T10:36:20.286Z,99891.09
2023-04-22T10:46:33.192Z,99876.88
2023-04-22T10:57:19.754Z,99875.52
2023-04-22T11:07:32.103Z,99873.42
2023-04-22T11:17:40.439Z,99869.26
2023-04-22T11:27:46.576Z,99861.42
2023-04-22T11:37:52.259Z,99850.09
2023-04-22T11:47:56.878Z,99842.71
2023-04-22T11:58:12.843Z,99841.60
2023-04-22T12:08:19.061Z,99839.78
2023-04-22T12:18:33.664Z,99833.44
2023-04-22T12:28:41.565Z,99821.89
2023-04-22T12:38:45.394Z,99814.36
2023-04-22T12:48:49.264Z,99807.44
2023-04-22T12:58:53.027Z,99794.95
2023-04-22T13:08:57.200Z,99784.58
2023-04-22T13:19:01.585Z,99781.35
2023-04-22T13:29:11.279Z,99774.05
2023-04-22T13:39:15.147Z,99767.46
2023-04-22T13:49:18.931Z,99768.95
2023-04-22T13:59:22.675Z,99774.78
2023-04-22T14:09:26.543Z,99766.42
2023-04-22T14:19:32.060Z,99758.77
2023-04-22T14:29:35.722Z,99754.23
2023-04-22T14:39:39.740Z,99749.56
2023-04-22T14:49:45.191Z,99747.58
2023-04-22T14:59:48.951Z,99741.39
2023-04-22T15:09:53.637Z,99738.80
2023-04-22T15:19:58.118Z,99731.92
2023-04-22T15:30:02.536Z,99731.46
2023-04-22T15:40:08.917Z,99728.67
2023-04-22T15:50:12.581Z,99729.31
2023-04-22T16:00:16.666Z,99720.45
2023-04-22T16:10:21.223Z,99713.16
2023-04-22T16:20:25.112Z,99708.73
2023-04-22T16:30:29.085Z,99703.41
2023-04-22T16:40:32.904Z,99700.65
2023-04-22T16:50:39.076Z,99694.02
2023-04-22T17:00:42.823Z,99691.02
2023-04-22T17:10:46.811Z,99691.38
2023-04-22T17:20:50.771Z,99689.70
2023-04-22T17:30:54.746Z,99695.34
2023-04-22T17:40:59.441Z,99699.11
2023-04-22T17:51:06.988Z,99702.54
2023-04-22T18:01:10.859Z,99707.95
2023-04-22T18:11:14.841Z,99719.70
2023-04-22T18:21:18.680Z,99727.32
2023-04-22T18:31:22.952Z,99732.70
2023-04-22T18:41:26.926Z,99738.50
2023-04-22T18:51:31.207Z,99745.90
2023-04-22T19:01:36.099Z,99752.83
2023-04-22T19:11:40.056Z,99748.61
2023-04-22T19:21:43.939Z,99749.55
2023-04-22T19:31:47.794Z,99746.83
2023-04-22T19:41:51.702Z,99736.54
2023-04-22T19:51:57.196Z,99732.20
2023-04-22T20:02:01.424Z,99734.56
2023-04-22T20:12:06.579Z,99736.39
2023-04-22T20:22:11.601Z,99731.23
2023-04-22T20:32:17.042Z,99727.30
2023-04-22T20:42:22.226Z,99724.45
2023-04-22T20:52:26.125Z,99727.77
2023-04-22T21:02:31.517Z,99724.27
2023-04-22T21:12:35.993Z,99715.60
2023-04-22T21:22:43.296Z,99713.57
2023-04-22T21:32:47.018Z,99710.92
2023-04-22T21:42:51.271Z,99709.36
2023-04-22T21:52:55.035Z,99714.34
2023-04-22T22:02:59.014Z,99716.48
2023-04-22T22:13:04.625Z,99712.64
2023-04-22T22:23:08.379Z,99715.17
2023-04-22T22:33:12.146Z,99713.21
2023-04-22T22:43:15.810Z,99709.10
2023-04-22T22:53:19.569Z,99703.00
2023-04-22T23:03:23.482Z,99703.99
2023-04-22T23:13:27.823Z,99706.18
2023-04-22T23:23:32.926Z,99707.86
2023-04-22T23:33:42.512Z,99704.13
2023-04-22T23:43:46.092Z,99702.42
2023-04-22T23:53:49.842Z,99697.23
